Information for New York John F. Kennedy

back to airport list

ICAO Code:KJFK Country:USA
Airport Name:New York John F. Kennedy Is Hub:No
Latitude:40.6413 Longitude:-73.7781
Scheduled Departures:0 Scheduled Arrivals:0
Total Past Departures:0 Total Past Arrivals:0
Pilots Based:0 Current Pilot Location:0
KJFK 242051Z 15006KT 10SM CLR 28/16 A3003 RMK AO2 SLP168 T02780161 58007


Nearby Destination Airports

ICAO Airport Country GC Distance View
No destination airports within a 500 NM radius!


+ Show Timetable

Scheduled Departures from KJFK

Flight To Destination Days Dep. Time Aircraft Info
No Scheduled Departures!


Scheduled Arrivals to KJFK

Flight From Origin Days Arr. Time Aircraft Info
No Scheduled Arrivals!
+ Show Recent Flight Info

Recent Departures from KJFK

Flight To Destination Pilot Flighttime Landingrate Aircraft View
No Recent Departure PIREPS!


Recent Arrivals to KJFK

Flight From Origin Pilot Flighttime Landingrate Aircraft View
No Recent Arrival PIREPS!
+ Show Pilot Information

Pilots based at KJFK

Avatar Pilot ID Name Location Rank View Profile
No Pilots are based at this airport!


Pilots currently at KJFK

Avatar Pilot ID Name Location Rank On Location since View Profile
Currently there are no pilots at this airport!
- Hide Map